Rome Urbe Air Force Base, Italy

3:55 PM CEST on May 23, 2015 (GMT +0200)
Roma - Prato della Signora | | Change Station
CLOSE
Current Station
Personal Weather Station
Location: Roma, LAZIO
Elevation: 138 ft
Nearby Weather Stations
Active Advisory: Rain

Elev 138 ft 41.94 °N, 12.51 °E | Updated 12 seconds ago

Scattered Clouds
Scattered Clouds
60.8 °F
Feels Like 60.8 °F
N
0.0
Wind Variable Wind from NNW
Gusts 0.0 mph

Today
High -- | Low -- °F
--% Chance of Precip.
Yesterday
High -- | Low -- °F
Precip. -- in
5:43 AM 8:30 PM
Waxing Crescent, 30% visible
Pressure 29.86 in
Visibility 6.2 miles
Clouds Mostly Cloudy 2000 ft
Scattered Clouds 3000 ft
Dew Point 50 °F
Humidity 68%
Rainfall 0.12 in
Snow Depth Not available.
UV 6 out of 12
Pollen Not available.
Air Quality Not available.
Flu Activity Not available.
METAR LIRA 231345Z 22007KT 170V240 9999 BKN020 SCT030 17/07 Q1011

More Conditions Fewer Conditions

Pressure 29.86 in
Visibility 6.2 miles
Clouds Mostly Cloudy 2000 ft
Scattered Clouds 3000 ft
Dew Point 50 °F
Humidity 68%
Rainfall 0.12 in
Snow Depth Not available.
UV 6 out of 12
Pollen Not available.
Air Quality Not available.
Flu Activity Not available.
METAR LIRA 231345Z 22007KT 170V240 9999 BKN020 SCT030 17/07 Q1011

More Conditions Fewer Conditions

10-Day Weather Forecast

Almanac

Astronomy

May. 23, 2015 Rise Set
Actual Time
Civil Twilight
Nautical Twilight
Astronomical Twilight
Moon
Length of Visible Light
Length of Day
Tomorrow will be .
, % of the Moon is Illuminated

Today's Extremes

Country Highs Country Lows

Community

WunderPhotos

Upload Photos

1,823,467 photos uploaded!

WunderBlogs® & News

Nearby

Air Quality

  Air Quality AQ Index Pollutant
Not available.

Snow Depth

Station Depth Elevation

Earthquake Activity

City Distance Mag. Time & Date
Minimum magnitude displayed is 2.5.

Coastal Water Temperatures

Place Temperature

Stations

Nearby Weather Stations

Station Location Temp. Windchill Dew Point Humidity Wind Precip. Elev Updated Type